< < Back
Terminal Aerodrome Forecast


Current Version              Previous Versions:   1  2  3  4  5  6  7  8  9  

Terminal Aerodrome Forecast

143
FTUS42 KILM 231720
TAFILM
TAF
KILM 231720Z 2318/2418 09008KT P6SM SCT050 BKN070
     FM232300 03002KT P6SM SKC
     FM241400 03008KT P6SM SCT050=

Latest METAR

431
SAUS70 KWBC 232100 RRC
MTRILM
METAR KILM 232053Z AUTO 09008KT 10SM CLR 29/17 A3022 RMK AO2 SLP231
T02890172 56019


USA.gov is the U.S. government's official web portal to all federal, state and local government web resources and services.